createdAt,value
2018-07-02T00:01:57.984Z,476.47
2018-07-02T00:04:25.251Z,479.27
2018-07-02T00:07:04.203Z,478.73
2018-07-02T00:09:31.446Z,476.77
2018-07-02T00:11:58.694Z,479.50
2018-07-02T00:14:25.945Z,480.07
2018-07-02T00:16:53.194Z,480.87
2018-07-02T00:19:26.338Z,477.27
2018-07-02T00:21:53.610Z,476.90
2018-07-02T00:24:20.933Z,477.20
2018-07-02T00:26:48.173Z,475.63
2018-07-02T00:29:15.425Z,472.90
2018-07-02T00:31:42.690Z,479.30
2018-07-02T00:34:09.922Z,476.30
2018-07-02T00:36:37.158Z,474.37
2018-07-02T00:39:06.985Z,478.90
2018-07-02T00:41:34.228Z,480.60
2018-07-02T00:44:01.456Z,474.73
2018-07-02T00:46:40.044Z,474.90
2018-07-02T00:49:07.506Z,474.67
2018-07-02T00:51:34.737Z,473.40
2018-07-02T00:54:02.241Z,474.37
2018-07-02T00:56:29.509Z,472.80
2018-07-02T00:58:56.776Z,471.53
2018-07-02T01:01:26.490Z,473.97
2018-07-02T01:03:54.469Z,474.67
2018-07-02T01:06:21.733Z,474.97
2018-07-02T01:08:49.000Z,472.50
2018-07-02T01:11:16.223Z,472.83
2018-07-02T01:13:43.492Z,471.87
2018-07-02T01:16:10.728Z,471.27
2018-07-02T01:18:37.986Z,473.17
2018-07-02T01:21:05.228Z,470.37
2018-07-02T01:23:32.477Z,472.60
2018-07-02T01:25:59.733Z,470.47
2018-07-02T01:28:26.990Z,469.43
2018-07-02T01:30:54.256Z,477.50
2018-07-02T01:33:21.497Z,472.17
2018-07-02T01:35:48.723Z,468.83
2018-07-02T01:38:15.995Z,468.97
2018-07-02T01:40:43.241Z,471.20
2018-07-02T01:43:10.503Z,468.43
2018-07-02T01:45:37.741Z,471.47
2018-07-02T01:48:04.960Z,468.50
2018-07-02T01:50:32.212Z,470.17
2018-07-02T01:52:59.507Z,467.37
2018-07-02T01:55:26.756Z,467.07
2018-07-02T01:57:54.077Z,466.50
2018-07-02T02:00:21.306Z,466.30
2018-07-02T02:02:48.545Z,468.17
2018-07-02T02:05:15.801Z,467.77
2018-07-02T02:07:43.115Z,464.97
2018-07-02T02:10:10.347Z,467.30
2018-07-02T02:12:37.602Z,465.83
2018-07-02T02:15:05.509Z,465.07
2018-07-02T02:17:33.008Z,465.23
2018-07-02T02:20:00.241Z,466.10
2018-07-02T02:22:27.461Z,465.17
2018-07-02T02:24:54.717Z,464.47
2018-07-02T02:27:21.949Z,466.17
2018-07-02T02:29:49.161Z,467.07
2018-07-02T02:32:16.399Z,462.33
2018-07-02T02:34:43.613Z,464.37
2018-07-02T02:37:10.861Z,464.40
2018-07-02T02:39:38.089Z,463.90
2018-07-02T02:42:05.574Z,464.20
2018-07-02T02:44:32.820Z,466.90
2018-07-02T02:47:00.089Z,463.60
2018-07-02T02:49:27.339Z,464.83
2018-07-02T02:51:54.892Z,462.30
2018-07-02T02:54:22.122Z,465.37
2018-07-02T02:56:49.342Z,461.17
2018-07-02T02:59:16.569Z,462.63
2018-07-02T03:01:43.785Z,463.17
2018-07-02T03:04:11.030Z,463.73
2018-07-02T03:06:38.288Z,464.40
2018-07-02T03:09:06.897Z,460.67
2018-07-02T03:11:34.125Z,463.87
2018-07-02T03:14:01.342Z,460.87
2018-07-02T03:16:28.609Z,460.33
2018-07-02T03:18:55.814Z,459.57
2018-07-02T03:21:23.009Z,457.70
2018-07-02T03:23:50.191Z,461.33
2018-07-02T03:26:17.357Z,459.93
2018-07-02T03:28:44.541Z,458.77
2018-07-02T03:31:11.721Z,457.97
2018-07-02T03:33:38.897Z,459.67
2018-07-02T03:36:06.260Z,459.50
2018-07-02T03:38:33.437Z,457.50
2018-07-02T03:41:00.644Z,459.97
2018-07-02T03:43:27.813Z,458.10
2018-07-02T03:45:55.014Z,462.97
2018-07-02T03:48:22.197Z,463.07
2018-07-02T03:50:49.384Z,465.47
2018-07-02T03:53:16.612Z,458.13
2018-07-02T03:55:43.816Z,456.57
2018-07-02T03:58:11.013Z,461.47
2018-07-02T04:00:38.209Z,460.40
2018-07-02T04:03:06.528Z,456.43
2018-07-02T04:05:36.600Z,456.77
2018-07-02T04:08:06.443Z,458.87
2018-07-02T04:10:33.680Z,476.53
2018-07-02T04:13:00.911Z,461.30
2018-07-02T04:15:28.188Z,461.90
2018-07-02T04:17:55.528Z,457.57
2018-07-02T04:20:22.814Z,462.80
2018-07-02T04:22:50.021Z,459.70
2018-07-02T04:25:17.193Z,461.90
2018-07-02T04:27:44.369Z,459.67
2018-07-02T04:30:11.540Z,461.73
2018-07-02T04:32:38.774Z,463.87
2018-07-02T04:35:06.078Z,467.37
2018-07-02T04:37:33.266Z,460.77
2018-07-02T04:40:00.440Z,465.27
2018-07-02T04:42:27.618Z,465.07
2018-07-02T04:44:54.788Z,461.80
2018-07-02T04:47:21.957Z,466.53
2018-07-02T04:49:49.118Z,465.10
2018-07-02T04:52:16.516Z,466.07
2018-07-02T04:54:43.717Z,469.27
2018-07-02T04:57:10.887Z,464.17
2018-07-02T04:59:38.189Z,467.40
2018-07-02T05:02:05.281Z,466.10
2018-07-02T05:04:32.441Z,464.60
2018-07-02T05:06:59.629Z,467.97
2018-07-02T05:09:26.784Z,466.73
2018-07-02T05:11:53.953Z,466.67
2018-07-02T05:14:21.125Z,467.20
2018-07-02T05:16:48.304Z,467.87
2018-07-02T05:19:15.528Z,468.47
2018-07-02T05:21:42.737Z,465.57
2018-07-02T05:24:09.942Z,473.00
2018-07-02T05:26:37.177Z,468.77
2018-07-02T05:29:04.398Z,465.27
2018-07-02T05:31:31.620Z,468.20
2018-07-02T05:33:58.835Z,467.77
2018-07-02T05:36:26.053Z,471.27
2018-07-02T05:38:53.309Z,474.07
2018-07-02T05:41:20.505Z,469.30
2018-07-02T05:43:47.856Z,473.93
2018-07-02T05:46:14.964Z,471.60
2018-07-02T05:48:42.244Z,473.90
2018-07-02T05:51:09.528Z,475.27
2018-07-02T05:53:36.746Z,473.13
2018-07-02T05:56:04.031Z,474.13
2018-07-02T05:58:31.246Z,472.67
2018-07-02T06:00:58.488Z,474.23
2018-07-02T06:03:25.737Z,475.03
2018-07-02T06:05:52.953Z,474.97
2018-07-02T06:08:20.176Z,472.57
2018-07-02T06:10:47.368Z,476.07
2018-07-02T06:13:14.636Z,478.47
2018-07-02T06:15:41.803Z,475.33
2018-07-02T06:18:08.999Z,475.67
2018-07-02T06:20:36.233Z,477.83
2018-07-02T06:23:03.494Z,476.93
2018-07-02T06:25:30.707Z,478.80
2018-07-02T06:27:57.950Z,479.27
2018-07-02T06:30:25.228Z,485.57
2018-07-02T06:32:52.833Z,482.97
2018-07-02T06:35:20.032Z,483.27
2018-07-02T06:37:47.249Z,482.80
2018-07-02T06:40:14.446Z,485.47
2018-07-02T06:42:41.649Z,485.57
2018-07-02T06:45:08.948Z,484.57
2018-07-02T06:47:36.544Z,489.83
2018-07-02T06:50:03.997Z,486.33
2018-07-02T06:52:31.229Z,493.50
2018-07-02T06:54:58.720Z,499.57
2018-07-02T06:57:25.949Z,503.73
2018-07-02T06:59:53.145Z,517.03
2018-07-02T07:02:20.355Z,530.10
2018-07-02T07:04:47.575Z,541.50
2018-07-02T07:07:14.785Z,546.03
2018-07-02T07:09:42.010Z,560.67
2018-07-02T07:12:09.238Z,563.50
2018-07-02T07:14:36.456Z,572.30
2018-07-02T07:17:03.696Z,577.13
2018-07-02T07:19:30.875Z,590.87
2018-07-02T07:21:58.108Z,582.13
2018-07-02T07:24:25.264Z,627.37
2018-07-02T07:26:52.793Z,594.03
2018-07-02T07:29:20.054Z,624.60
2018-07-02T07:31:47.221Z,592.97
2018-07-02T07:34:14.388Z,637.20
2018-07-02T07:36:41.550Z,667.67
2018-07-02T07:39:09.902Z,643.77
2018-07-02T07:41:37.072Z,606.47
2018-07-02T07:44:04.298Z,636.57
2018-07-02T07:46:31.445Z,607.37
2018-07-02T07:48:58.634Z,614.00
2018-07-02T07:51:25.784Z,610.77
2018-07-02T07:53:52.956Z,661.37
2018-07-02T07:56:20.154Z,640.47
2018-07-02T07:58:47.323Z,636.63
2018-07-02T08:01:14.524Z,676.67
2018-07-02T08:03:41.746Z,689.37
2018-07-02T08:06:08.908Z,725.63
2018-07-02T08:08:36.090Z,756.47
2018-07-02T08:11:03.317Z,740.50
2018-07-02T08:13:30.491Z,696.67
2018-07-02T08:15:57.673Z,728.00
2018-07-02T08:18:24.840Z,735.00
2018-07-02T08:20:52.059Z,756.97
2018-07-02T08:23:19.324Z,736.53
2018-07-02T08:25:46.536Z,742.20
2018-07-02T08:28:13.749Z,734.77
2018-07-02T08:30:40.969Z,733.77
2018-07-02T08:33:08.212Z,791.13
2018-07-02T08:35:35.427Z,811.37
2018-07-02T08:38:02.810Z,785.73
2018-07-02T08:40:30.049Z,862.10
2018-07-02T08:42:57.254Z,849.03
2018-07-02T08:45:24.477Z,796.37
2018-07-02T08:47:51.713Z,803.90
2018-07-02T08:50:18.920Z,800.83
2018-07-02T08:52:46.146Z,799.73
2018-07-02T08:55:13.386Z,825.20
2018-07-02T08:57:40.606Z,791.33
2018-07-02T09:00:07.882Z,813.00
2018-07-02T09:02:35.112Z,772.77
2018-07-02T09:05:02.357Z,788.93
2018-07-02T09:07:29.558Z,795.17
2018-07-02T09:09:56.783Z,869.67
2018-07-02T09:12:23.980Z,826.20
2018-07-02T09:14:51.422Z,847.13
2018-07-02T09:17:18.476Z,806.00
2018-07-02T09:19:45.657Z,839.60
2018-07-02T09:22:12.824Z,820.53
2018-07-02T09:24:39.990Z,768.73
2018-07-02T09:27:07.141Z,783.23
2018-07-02T09:29:34.481Z,808.70
2018-07-02T09:32:01.648Z,825.13
2018-07-02T09:34:28.800Z,823.10
2018-07-02T09:36:55.993Z,855.73
2018-07-02T09:39:23.174Z,790.63
2018-07-02T09:41:50.337Z,783.53
2018-07-02T09:44:17.489Z,801.23
2018-07-02T09:46:44.662Z,779.50
2018-07-02T09:49:11.814Z,806.80
2018-07-02T09:51:39.040Z,832.33
2018-07-02T09:54:06.325Z,813.27
2018-07-02T09:56:33.504Z,788.53
2018-07-02T09:59:00.831Z,810.53
2018-07-02T10:01:27.900Z,835.27
2018-07-02T10:03:55.060Z,804.83
2018-07-02T10:06:22.684Z,774.20
2018-07-02T10:08:49.809Z,807.80
2018-07-02T10:11:16.970Z,802.77
2018-07-02T10:13:44.132Z,800.03
2018-07-02T10:16:11.294Z,794.80
2018-07-02T10:18:38.469Z,807.57
2018-07-02T10:21:06.139Z,792.90
2018-07-02T10:23:37.334Z,830.60
2018-07-02T10:26:00.546Z,770.57
2018-07-02T10:28:27.645Z,757.70
2018-07-02T10:30:54.854Z,729.50
2018-07-02T10:33:22.009Z,729.00
2018-07-02T10:35:49.168Z,782.93
2018-07-02T10:38:16.328Z,781.77
2018-07-02T10:40:43.501Z,775.20
2018-07-02T10:43:10.660Z,756.43
2018-07-02T10:45:37.806Z,750.37
2018-07-02T10:48:04.989Z,731.07
2018-07-02T10:50:32.158Z,795.73
2018-07-02T10:52:59.322Z,837.87
2018-07-02T10:55:26.508Z,821.37
2018-07-02T10:57:53.696Z,829.43
2018-07-02T11:00:20.889Z,839.20
2018-07-02T11:02:48.065Z,823.47
2018-07-02T11:05:15.233Z,882.07
2018-07-02T11:07:42.409Z,838.37
2018-07-02T11:10:09.565Z,854.10
2018-07-02T11:12:36.744Z,850.70
2018-07-02T11:15:04.149Z,845.13
2018-07-02T11:17:31.305Z,833.83
2018-07-02T11:19:58.489Z,835.20
2018-07-02T11:22:25.651Z,836.13
2018-07-02T11:24:53.025Z,826.43
2018-07-02T11:27:20.204Z,838.07
2018-07-02T11:29:47.373Z,817.03
2018-07-02T11:32:14.528Z,818.97
2018-07-02T11:34:41.706Z,834.20
2018-07-02T11:37:08.872Z,872.63
2018-07-02T11:39:36.030Z,851.83
2018-07-02T11:42:03.211Z,860.53
2018-07-02T11:44:30.723Z,864.87
2018-07-02T11:46:57.868Z,896.80
2018-07-02T11:49:25.029Z,846.97
2018-07-02T11:51:52.408Z,825.03
2018-07-02T11:54:19.604Z,813.90
2018-07-02T11:56:46.755Z,840.20
2018-07-02T11:59:13.932Z,848.20
2018-07-02T12:01:41.109Z,858.60
2018-07-02T12:04:08.313Z,793.90
2018-07-02T12:06:35.458Z,809.70
2018-07-02T12:09:03.890Z,810.20
2018-07-02T12:11:31.078Z,827.13
2018-07-02T12:13:58.237Z,850.00
2018-07-02T12:16:25.414Z,854.30
2018-07-02T12:18:52.580Z,814.30
2018-07-02T12:21:19.746Z,822.53
2018-07-02T12:23:46.903Z,861.33
2018-07-02T12:26:14.108Z,815.97
2018-07-02T12:28:41.245Z,797.07
2018-07-02T12:31:08.428Z,797.33
2018-07-02T12:33:35.691Z,799.73
2018-07-02T12:36:02.786Z,813.17
2018-07-02T12:38:29.939Z,831.60
2018-07-02T12:40:57.101Z,846.73
2018-07-02T12:43:24.256Z,839.63
2018-07-02T12:45:51.513Z,839.50
2018-07-02T12:48:18.665Z,852.20
2018-07-02T12:50:45.908Z,848.40
2018-07-02T12:53:13.073Z,837.20
2018-07-02T12:55:40.244Z,850.93
2018-07-02T12:58:07.430Z,841.70
2018-07-02T13:00:34.608Z,851.60
2018-07-02T13:03:01.775Z,824.57
2018-07-02T13:05:29.082Z,825.87
2018-07-02T13:07:56.237Z,834.57
2018-07-02T13:10:23.434Z,846.30
2018-07-02T13:12:50.625Z,827.37
2018-07-02T13:15:17.792Z,841.13
2018-07-02T13:17:44.961Z,862.23
2018-07-02T13:20:12.184Z,819.67
2018-07-02T13:22:39.394Z,803.70
2018-07-02T13:25:06.619Z,838.97
2018-07-02T13:27:33.849Z,830.07
2018-07-02T13:30:01.078Z,797.67
2018-07-02T13:32:28.282Z,807.07
2018-07-02T13:34:55.480Z,795.03
2018-07-02T13:37:22.690Z,865.67
2018-07-02T13:39:49.967Z,843.23
2018-07-02T13:42:17.188Z,828.10
2018-07-02T13:44:44.385Z,864.97
2018-07-02T13:47:11.613Z,876.90
2018-07-02T13:49:38.809Z,864.67
2018-07-02T13:52:06.012Z,854.37
2018-07-02T13:54:33.253Z,878.37
2018-07-02T13:57:00.501Z,883.53
2018-07-02T13:59:27.721Z,876.07
2018-07-02T14:01:54.932Z,826.10
2018-07-02T14:04:22.132Z,823.47
2018-07-02T14:06:49.350Z,833.17
2018-07-02T14:09:16.553Z,791.17
2018-07-02T14:11:43.770Z,803.37
2018-07-02T14:14:10.989Z,830.50
2018-07-02T14:16:38.200Z,833.40
2018-07-02T14:19:05.748Z,821.83
2018-07-02T14:21:33.017Z,829.43
2018-07-02T14:24:00.177Z,824.37
2018-07-02T14:26:27.349Z,845.67
2018-07-02T14:28:54.548Z,814.83
2018-07-02T14:31:21.724Z,871.30
2018-07-02T14:33:48.876Z,826.27
2018-07-02T14:36:16.029Z,830.33
2018-07-02T14:38:43.220Z,824.47
2018-07-02T14:41:10.397Z,820.90
2018-07-02T14:43:38.014Z,853.37
2018-07-02T14:46:05.252Z,872.40
2018-07-02T14:48:32.481Z,816.53
2018-07-02T14:50:59.858Z,835.70
2018-07-02T14:53:27.057Z,852.07
2018-07-02T14:55:54.272Z,835.23
2018-07-02T14:58:21.509Z,879.97
2018-07-02T15:00:48.792Z,839.80
2018-07-02T15:03:16.014Z,830.63
2018-07-02T15:05:43.221Z,819.97
2018-07-02T15:08:10.812Z,829.93
2018-07-02T15:10:38.037Z,820.17
2018-07-02T15:13:05.264Z,820.50
2018-07-02T15:15:32.523Z,821.30
2018-07-02T15:17:59.716Z,826.90
2018-07-02T15:20:26.958Z,822.80
2018-07-02T15:22:54.450Z,781.63
2018-07-02T15:25:21.613Z,802.57
2018-07-02T15:27:48.817Z,793.70
2018-07-02T15:30:16.046Z,821.80
2018-07-02T15:32:43.253Z,804.57
2018-07-02T15:35:10.488Z,807.80
2018-07-02T15:37:37.681Z,787.57
2018-07-02T15:40:04.945Z,816.87
2018-07-02T15:42:32.152Z,795.07
2018-07-02T15:44:59.884Z,773.63
2018-07-02T15:47:27.112Z,794.13
2018-07-02T15:49:54.353Z,805.40
2018-07-02T15:52:21.561Z,782.27
2018-07-02T15:54:48.777Z,803.30
2018-07-02T15:57:16.029Z,772.77
2018-07-02T15:59:43.238Z,788.03
2018-07-02T16:02:10.444Z,784.80
2018-07-02T16:04:37.758Z,793.67
2018-07-02T16:07:04.980Z,763.47
2018-07-02T16:09:32.187Z,820.30
2018-07-02T16:11:59.388Z,787.73
2018-07-02T16:14:26.624Z,763.77
2018-07-02T16:16:53.843Z,783.33
2018-07-02T16:19:21.063Z,781.07
2018-07-02T16:21:48.260Z,818.93
2018-07-02T16:24:15.578Z,794.57
2018-07-02T16:26:42.786Z,792.57
2018-07-02T16:29:10.013Z,825.20
2018-07-02T16:31:37.292Z,788.00
2018-07-02T16:34:04.649Z,763.30
2018-07-02T16:36:31.906Z,787.20
2018-07-02T16:38:59.110Z,784.00
2018-07-02T16:41:26.473Z,766.07
2018-07-02T16:43:53.728Z,789.57
2018-07-02T16:46:20.945Z,772.13
2018-07-02T16:48:48.173Z,787.83
2018-07-02T16:51:15.508Z,748.13
2018-07-02T16:53:42.725Z,736.73
2018-07-02T16:56:09.940Z,766.67
2018-07-02T16:58:37.132Z,760.20
2018-07-02T17:01:05.230Z,753.43
2018-07-02T17:03:32.504Z,746.63
2018-07-02T17:05:59.804Z,758.87
2018-07-02T17:08:27.132Z,756.03
2018-07-02T17:10:54.334Z,727.27
2018-07-02T17:13:21.597Z,732.20
2018-07-02T17:15:48.812Z,753.77
2018-07-02T17:18:16.041Z,737.50
2018-07-02T17:20:43.268Z,703.67
2018-07-02T17:23:10.474Z,680.97
2018-07-02T17:25:37.633Z,728.37
2018-07-02T17:28:05.069Z,681.67
2018-07-02T17:30:32.274Z,656.97
2018-07-02T17:32:59.424Z,672.87
2018-07-02T17:35:27.397Z,654.20
2018-07-02T17:37:54.585Z,633.73
2018-07-02T17:40:21.756Z,604.13
2018-07-02T17:42:48.915Z,585.33
2018-07-02T17:45:16.082Z,590.03
2018-07-02T17:47:43.244Z,578.97
2018-07-02T17:50:10.432Z,579.70
2018-07-02T17:52:37.587Z,583.03
2018-07-02T17:55:05.106Z,574.23
2018-07-02T17:57:32.265Z,582.27
2018-07-02T17:59:59.425Z,576.67
2018-07-02T18:02:26.613Z,576.57
2018-07-02T18:04:53.772Z,579.23
2018-07-02T18:07:21.013Z,583.13
2018-07-02T18:09:48.252Z,571.37
2018-07-02T18:12:15.409Z,573.47
2018-07-02T18:14:42.576Z,566.60
2018-07-02T18:17:09.764Z,570.40
2018-07-02T18:19:36.953Z,563.67
2018-07-02T18:22:04.159Z,562.93
2018-07-02T18:24:31.374Z,564.10
2018-07-02T18:26:58.748Z,563.83
2018-07-02T18:29:25.916Z,563.80
2018-07-02T18:31:53.098Z,567.13
2018-07-02T18:34:20.265Z,561.53
2018-07-02T18:36:47.485Z,558.03
2018-07-02T18:39:14.665Z,561.73
2018-07-02T18:41:41.858Z,555.97
2018-07-02T18:44:09.045Z,560.90
2018-07-02T18:46:36.556Z,555.33
2018-07-02T18:49:04.275Z,555.03
2018-07-02T18:51:31.551Z,557.80
2018-07-02T18:54:03.012Z,554.80
2018-07-02T18:56:32.063Z,550.63
2018-07-02T18:59:01.986Z,552.13
2018-07-02T19:01:29.228Z,545.23
2018-07-02T19:03:56.453Z,546.10
2018-07-02T19:06:23.682Z,547.43
2018-07-02T19:08:50.875Z,548.27
2018-07-02T19:11:18.061Z,549.33
2018-07-02T19:13:45.501Z,555.47
2018-07-02T19:16:12.694Z,544.30
2018-07-02T19:18:39.848Z,542.17
2018-07-02T19:21:07.184Z,543.77
2018-07-02T19:23:34.449Z,544.33
2018-07-02T19:26:01.689Z,540.53
2018-07-02T19:28:29.005Z,542.10
2018-07-02T19:30:56.241Z,539.30
2018-07-02T19:33:23.491Z,546.20
2018-07-02T19:35:50.745Z,538.50
2018-07-02T19:38:17.993Z,535.77
2018-07-02T19:40:47.134Z,534.57
2018-07-02T19:43:15.025Z,535.10
2018-07-02T19:45:42.264Z,533.70
2018-07-02T19:48:09.485Z,534.83
2018-07-02T19:50:36.699Z,535.40
2018-07-02T19:53:03.993Z,534.90
2018-07-02T19:55:31.420Z,532.50
2018-07-02T19:57:58.789Z,534.57
2018-07-02T20:00:26.055Z,531.27
2018-07-02T20:02:53.336Z,533.90
2018-07-02T20:05:20.505Z,533.97
2018-07-02T20:07:47.729Z,536.10
2018-07-02T20:10:15.232Z,529.13
2018-07-02T20:12:42.492Z,529.53
2018-07-02T20:15:09.749Z,528.87
2018-07-02T20:17:36.976Z,528.00
2018-07-02T20:20:07.336Z,528.87
2018-07-02T20:22:34.506Z,531.57
2018-07-02T20:25:01.680Z,527.17
2018-07-02T20:27:28.898Z,527.63
2018-07-02T20:29:56.096Z,529.70
2018-07-02T20:32:23.267Z,526.27
2018-07-02T20:34:50.500Z,524.83
2018-07-02T20:37:17.649Z,524.63
2018-07-02T20:39:45.085Z,520.33
2018-07-02T20:42:12.334Z,524.37
2018-07-02T20:44:39.492Z,523.70
2018-07-02T20:47:06.680Z,524.97
2018-07-02T20:49:34.141Z,522.77
2018-07-02T20:52:01.499Z,524.97
2018-07-02T20:54:28.682Z,523.93
2018-07-02T20:56:55.877Z,525.53
2018-07-02T20:59:23.032Z,523.07
2018-07-02T21:01:50.316Z,527.60
2018-07-02T21:04:17.480Z,532.97
2018-07-02T21:06:44.650Z,525.03
2018-07-02T21:09:11.833Z,522.13
2018-07-02T21:11:39.049Z,520.63
2018-07-02T21:14:06.605Z,522.33
2018-07-02T21:16:34.085Z,521.47
2018-07-02T21:19:01.442Z,525.83
2018-07-02T21:21:28.635Z,519.63
2018-07-02T21:23:55.960Z,517.87
2018-07-02T21:26:23.184Z,521.63
2018-07-02T21:28:50.459Z,516.90
2018-07-02T21:31:17.712Z,520.30
2018-07-02T21:33:44.967Z,525.07
2018-07-02T21:36:12.185Z,517.57
2018-07-02T21:38:39.402Z,524.40
2018-07-02T21:41:06.653Z,518.77
2018-07-02T21:43:33.891Z,520.10
2018-07-02T21:46:01.123Z,518.93
2018-07-02T21:48:28.406Z,520.87
2018-07-02T21:50:55.580Z,526.20
2018-07-02T21:53:22.836Z,535.60
2018-07-02T21:55:50.057Z,522.10
2018-07-02T21:58:17.253Z,526.70
2018-07-02T22:00:45.093Z,519.87
2018-07-02T22:03:12.321Z,521.57
2018-07-02T22:05:39.781Z,527.10
2018-07-02T22:08:07.021Z,525.53
2018-07-02T22:10:34.265Z,525.73
2018-07-02T22:13:01.593Z,522.97
2018-07-02T22:15:28.815Z,522.80
2018-07-02T22:17:56.045Z,529.13
2018-07-02T22:20:23.256Z,524.60
2018-07-02T22:22:50.470Z,527.77
2018-07-02T22:25:17.735Z,522.00
2018-07-02T22:27:45.185Z,524.03
2018-07-02T22:30:12.444Z,520.23
2018-07-02T22:32:39.652Z,524.27
2018-07-02T22:35:06.889Z,526.03
2018-07-02T22:37:34.123Z,528.83
2018-07-02T22:40:01.358Z,522.73
2018-07-02T22:42:28.596Z,518.20
2018-07-02T22:44:55.791Z,519.33
2018-07-02T22:47:23.015Z,517.83
2018-07-02T22:49:50.229Z,522.57
2018-07-02T22:52:17.453Z,519.27
2018-07-02T22:54:44.692Z,516.37
2018-07-02T22:57:11.939Z,516.87
2018-07-02T22:59:39.149Z,520.97
2018-07-02T23:02:06.380Z,522.37
2018-07-02T23:04:33.593Z,514.30
2018-07-02T23:07:00.809Z,521.00
2018-07-02T23:09:28.019Z,515.27
2018-07-02T23:11:55.231Z,518.97
2018-07-02T23:14:22.453Z,523.63
2018-07-02T23:16:49.666Z,519.30
2018-07-02T23:19:16.909Z,514.03
2018-07-02T23:21:44.253Z,520.07
2018-07-02T23:24:11.673Z,520.87
2018-07-02T23:26:38.869Z,512.80
2018-07-02T23:29:06.083Z,519.00
2018-07-02T23:31:33.284Z,513.53
2018-07-02T23:34:00.479Z,521.33
2018-07-02T23:36:27.703Z,510.60
2018-07-02T23:38:54.914Z,516.27
2018-07-02T23:41:22.122Z,514.07
2018-07-02T23:43:49.350Z,517.87
2018-07-02T23:46:16.561Z,511.30
2018-07-02T23:48:43.781Z,514.53
2018-07-02T23:51:11.056Z,517.20
2018-07-02T23:53:38.224Z,511.47
2018-07-02T23:56:05.870Z,509.83
2018-07-02T23:58:33.101Z,509.60
